createdAt,value
2022-08-03T00:01:30.944Z,99837.28
2022-08-03T00:03:57.599Z,99855.88
2022-08-03T00:06:24.306Z,99845.22
2022-08-03T00:08:51.131Z,99849.53
2022-08-03T00:11:18.146Z,99824.00
2022-08-03T00:13:44.918Z,99846.38
2022-08-03T00:16:11.787Z,99829.22
2022-08-03T00:18:38.407Z,99854.09
2022-08-03T00:21:05.582Z,99846.50
2022-08-03T00:23:51.146Z,99846.75
2022-08-03T00:26:20.523Z,99838.03
2022-08-03T00:28:47.425Z,99826.09
2022-08-03T00:31:14.170Z,99821.97
2022-08-03T00:33:58.056Z,99839.66
2022-08-03T00:36:26.415Z,99831.81
2022-08-03T00:38:53.041Z,99813.03
2022-08-03T00:41:19.740Z,99826.00
2022-08-03T00:43:47.459Z,99831.69
2022-08-03T00:46:18.989Z,99816.41
2022-08-03T00:48:52.124Z,99821.41
2022-08-03T00:51:20.738Z,99776.28
2022-08-03T00:53:47.792Z,99830.97
2022-08-03T00:56:15.532Z,99830.47
2022-08-03T00:58:44.760Z,99832.44
2022-08-03T01:01:12.451Z,99800.59
2022-08-03T01:03:40.024Z,99832.34
2022-08-03T01:06:43.138Z,99840.41
2022-08-03T01:09:23.648Z,99832.69
2022-08-03T01:12:01.844Z,99840.50
2022-08-03T01:14:53.539Z,99837.47
2022-08-03T01:17:35.850Z,99828.66
2022-08-03T01:20:11.869Z,99808.06
2022-08-03T01:23:10.747Z,99822.53
2022-08-03T01:26:06.050Z,99818.91
2022-08-03T01:29:04.227Z,99817.06
2022-08-03T01:32:59.599Z,99820.94
2022-08-03T01:34:39.487Z,99807.41
2022-08-03T01:37:09.279Z,99815.78
2022-08-03T01:39:40.614Z,99800.97
2022-08-03T01:42:11.547Z,99794.19
2022-08-03T01:44:41.497Z,99790.22
2022-08-03T01:47:10.149Z,99810.13
2022-08-03T01:49:43.274Z,99800.63
2022-08-03T01:52:12.589Z,99771.97
2022-08-03T01:54:45.342Z,99811.50
2022-08-03T01:57:14.271Z,99815.56
2022-08-03T01:59:43.204Z,99794.69
2022-08-03T02:02:29.143Z,99789.31
2022-08-03T02:05:01.439Z,99799.94
2022-08-03T02:07:30.299Z,99806.00
2022-08-03T02:09:59.093Z,99804.81
2022-08-03T02:12:28.507Z,99797.22
2022-08-03T02:14:56.806Z,99764.72
2022-08-03T02:17:39.647Z,99779.19
2022-08-03T02:20:10.839Z,99772.44
2022-08-03T02:22:40.809Z,99775.78
2022-08-03T02:25:09.899Z,99813.81
2022-08-03T02:27:43.635Z,99810.91
2022-08-03T02:30:12.404Z,99807.19
2022-08-03T02:32:41.264Z,99817.69
2022-08-03T02:35:12.521Z,99776.03
2022-08-03T02:37:49.531Z,99815.56
2022-08-03T02:40:19.022Z,99754.47
2022-08-03T02:42:47.054Z,99811.72
2022-08-03T02:45:16.561Z,99761.34
2022-08-03T02:47:53.370Z,99810.47
2022-08-03T02:50:24.411Z,99777.66
2022-08-03T02:52:52.837Z,99803.22
2022-08-03T02:55:22.047Z,99806.25
2022-08-03T02:57:49.830Z,99793.16
2022-08-03T03:00:27.337Z,99810.91
2022-08-03T03:02:58.292Z,99805.31
2022-08-03T03:05:52.794Z,99769.38
2022-08-03T03:08:18.750Z,99806.13
2022-08-03T03:10:48.347Z,99804.13
2022-08-03T03:13:22.282Z,99792.03
2022-08-03T03:15:49.754Z,99804.97
2022-08-03T03:18:21.895Z,99748.84
2022-08-03T03:20:50.461Z,99790.63
2022-08-03T03:23:17.830Z,99806.25
2022-08-03T03:25:46.754Z,99807.31
2022-08-03T03:28:13.748Z,99789.59
2022-08-03T03:30:40.567Z,99773.03
2022-08-03T03:33:07.635Z,99798.22
2022-08-03T03:35:38.925Z,99782.81
2022-08-03T03:38:07.132Z,99784.81
2022-08-03T03:40:35.824Z,99806.81
2022-08-03T03:43:03.856Z,99811.47
2022-08-03T03:45:31.046Z,99818.69
2022-08-03T03:48:00.092Z,99787.03
2022-08-03T03:50:28.070Z,99810.50
2022-08-03T03:52:54.679Z,99778.63
2022-08-03T03:55:21.471Z,99807.16
2022-08-03T03:57:48.134Z,99803.78
2022-08-03T04:00:16.625Z,99802.03
2022-08-03T04:02:43.813Z,99779.16
2022-08-03T04:05:29.288Z,99768.09
2022-08-03T04:08:24.600Z,99801.78
2022-08-03T04:11:30.111Z,99807.13
2022-08-03T04:14:16.884Z,99816.38
2022-08-03T04:16:49.177Z,99800.03
2022-08-03T04:19:23.613Z,99799.69
2022-08-03T04:21:57.251Z,99822.06
2022-08-03T04:24:27.170Z,99769.31
2022-08-03T04:26:55.750Z,99782.78
2022-08-03T04:29:23.960Z,99801.91
2022-08-03T04:31:51.912Z,99748.81
2022-08-03T04:34:18.675Z,99797.25
2022-08-03T04:36:50.082Z,99799.13
2022-08-03T04:39:23.000Z,99779.88
2022-08-03T04:42:07.401Z,99825.09
2022-08-03T04:44:41.703Z,99818.25
2022-08-03T04:47:08.884Z,99810.53
2022-08-03T04:49:38.763Z,99809.38
2022-08-03T04:52:08.247Z,99819.03
2022-08-03T04:54:50.283Z,99794.94
2022-08-03T04:57:22.749Z,99816.22
2022-08-03T05:00:02.138Z,99799.78
2022-08-03T05:02:31.854Z,99806.47
2022-08-03T05:04:58.805Z,99766.19
2022-08-03T05:07:25.642Z,99792.25
2022-08-03T05:10:01.573Z,99725.66
2022-08-03T05:12:32.875Z,99803.56
2022-08-03T05:15:00.667Z,99837.97
2022-08-03T05:17:28.295Z,99836.31
2022-08-03T05:19:55.142Z,99826.88
2022-08-03T05:22:22.242Z,99839.50
2022-08-03T05:24:49.106Z,99833.63
2022-08-03T05:27:21.711Z,99841.25
2022-08-03T05:29:50.168Z,99838.09
2022-08-03T05:32:18.049Z,99839.75
2022-08-03T05:34:45.120Z,99849.13
2022-08-03T05:37:11.900Z,99823.66
2022-08-03T05:39:38.606Z,99838.03
2022-08-03T05:42:05.367Z,99819.28
2022-08-03T05:44:32.159Z,99840.09
2022-08-03T05:46:59.383Z,99841.78
2022-08-03T05:49:26.176Z,99745.22
2022-08-03T05:52:00.439Z,99840.22
2022-08-03T05:54:56.107Z,99804.53
2022-08-03T05:57:23.775Z,99803.94
2022-08-03T05:59:57.392Z,99823.75
2022-08-03T06:02:27.119Z,99808.44
2022-08-03T06:04:54.578Z,99841.22
2022-08-03T06:07:21.282Z,99807.81
2022-08-03T06:10:33.733Z,99832.25
2022-08-03T06:12:37.708Z,99824.34
2022-08-03T06:15:05.290Z,99826.53
2022-08-03T06:17:37.593Z,99814.72
2022-08-03T06:20:05.940Z,99837.50
2022-08-03T06:22:32.595Z,99826.97
2022-08-03T06:25:03.430Z,99828.06
2022-08-03T06:27:37.284Z,99823.44
2022-08-03T06:30:05.246Z,99828.56
2022-08-03T06:32:39.055Z,99808.13
2022-08-03T06:35:07.453Z,99818.88
2022-08-03T06:37:50.788Z,99822.28
2022-08-03T06:40:28.547Z,99820.81
2022-08-03T06:42:56.529Z,99729.81
2022-08-03T06:45:23.557Z,99822.56
2022-08-03T06:48:01.933Z,99827.78
2022-08-03T06:50:28.814Z,99811.31
2022-08-03T06:52:55.645Z,99826.75
2022-08-03T06:55:22.391Z,99833.50
2022-08-03T06:57:49.171Z,99829.50
2022-08-03T07:00:16.211Z,99826.47
2022-08-03T07:02:42.937Z,99827.19
2022-08-03T07:05:10.588Z,99821.16
2022-08-03T07:07:37.841Z,99825.41
2022-08-03T07:10:05.790Z,99819.91
2022-08-03T07:12:33.806Z,99801.13
2022-08-03T07:15:02.990Z,99823.00
2022-08-03T07:17:34.138Z,99794.78
2022-08-03T07:20:04.256Z,99801.47
2022-08-03T07:22:31.230Z,99820.72
2022-08-03T07:24:58.045Z,99815.16
2022-08-03T07:27:26.957Z,99795.16
2022-08-03T07:29:54.161Z,99811.00
2022-08-03T07:32:20.890Z,99801.13
2022-08-03T07:34:47.566Z,99816.19
2022-08-03T07:37:14.252Z,99812.22
2022-08-03T07:39:40.899Z,99803.00
2022-08-03T07:42:07.626Z,99804.91
2022-08-03T07:44:34.295Z,99813.38
2022-08-03T07:47:03.309Z,99800.47
2022-08-03T07:49:30.643Z,99804.00
2022-08-03T07:52:16.817Z,99804.84
2022-08-03T07:54:43.925Z,99803.41
2022-08-03T07:57:10.638Z,99766.97
2022-08-03T07:59:56.955Z,99810.25
2022-08-03T08:02:26.816Z,99789.09
2022-08-03T08:04:53.561Z,99775.00
2022-08-03T08:07:20.710Z,99790.94
2022-08-03T08:09:47.476Z,99786.38
2022-08-03T08:12:15.558Z,99785.97
2022-08-03T08:14:45.638Z,99758.63
2022-08-03T08:17:13.215Z,99785.31
2022-08-03T08:19:41.475Z,99781.41
2022-08-03T08:22:13.482Z,99778.50
2022-08-03T08:24:44.554Z,99779.91
2022-08-03T08:27:12.021Z,99779.94
2022-08-03T08:29:47.777Z,99773.34
2022-08-03T08:32:22.064Z,99773.41
2022-08-03T08:34:48.756Z,99780.97
2022-08-03T08:37:15.455Z,99778.41
2022-08-03T08:39:42.153Z,99780.47
2022-08-03T08:42:10.316Z,99758.41
2022-08-03T08:44:57.556Z,99770.59
2022-08-03T08:47:50.994Z,99765.31
2022-08-03T08:50:28.151Z,99770.53
2022-08-03T08:52:56.241Z,99769.78
2022-08-03T08:55:23.977Z,99764.13
2022-08-03T08:57:55.396Z,99768.00
2022-08-03T09:00:22.183Z,99762.97
2022-08-03T09:02:49.181Z,99762.41
2022-08-03T09:05:27.833Z,99760.25
2022-08-03T09:08:05.576Z,99761.91
2022-08-03T09:10:34.754Z,99756.38
2022-08-03T09:13:01.558Z,99747.81
2022-08-03T09:15:32.132Z,99751.25
2022-08-03T09:18:00.954Z,99744.22
2022-08-03T09:20:33.488Z,99738.69
2022-08-03T09:23:19.047Z,99743.75
2022-08-03T09:25:58.242Z,99747.28
2022-08-03T09:29:00.204Z,99729.97
2022-08-03T09:31:36.659Z,99754.56
2022-08-03T09:34:09.263Z,99746.66
2022-08-03T09:36:45.600Z,99737.50
2022-08-03T09:39:15.947Z,99744.38
2022-08-03T09:41:48.867Z,99739.84
2022-08-03T09:44:16.210Z,99738.03
2022-08-03T09:46:55.802Z,99739.31
2022-08-03T09:49:23.126Z,99707.81
2022-08-03T09:52:32.735Z,99738.25
2022-08-03T09:54:37.226Z,99728.31
2022-08-03T09:57:04.330Z,99734.97
2022-08-03T09:59:32.603Z,99718.56
2022-08-03T10:02:00.661Z,99731.53
2022-08-03T10:04:27.868Z,99716.81
2022-08-03T10:07:09.223Z,99717.75
2022-08-03T10:09:37.476Z,99719.41
2022-08-03T10:12:12.154Z,99705.63
2022-08-03T10:14:41.717Z,99720.13
2022-08-03T10:17:09.809Z,99720.47
2022-08-03T10:19:36.683Z,99706.13
2022-08-03T10:22:10.438Z,99700.44
2022-08-03T10:24:39.244Z,99706.63
2022-08-03T10:27:07.448Z,99705.28
2022-08-03T10:29:38.946Z,99693.66
2022-08-03T10:32:19.001Z,99693.50
2022-08-03T10:34:47.090Z,99703.78
2022-08-03T10:37:16.118Z,99693.50
2022-08-03T10:39:54.572Z,99693.72
2022-08-03T10:42:23.805Z,99671.19
2022-08-03T10:45:16.964Z,99676.53
2022-08-03T10:47:44.489Z,99683.53
2022-08-03T10:50:14.229Z,99685.25
2022-08-03T10:53:03.801Z,99662.59
2022-08-03T10:55:52.061Z,99679.81
2022-08-03T10:58:37.418Z,99668.94
2022-08-03T11:02:01.414Z,99673.47
2022-08-03T11:04:29.834Z,99671.59
2022-08-03T11:07:15.733Z,99669.91
2022-08-03T11:09:48.457Z,99652.56
2022-08-03T11:12:33.340Z,99676.41
2022-08-03T11:15:04.625Z,99655.59
2022-08-03T11:17:46.298Z,99664.59
2022-08-03T11:21:07.037Z,99661.53
2022-08-03T11:24:03.131Z,99659.16
2022-08-03T11:26:33.032Z,99651.56
2022-08-03T11:29:31.432Z,99645.84
2022-08-03T11:32:40.117Z,99648.13
2022-08-03T11:35:14.713Z,99640.84
2022-08-03T11:38:03.058Z,99639.19
2022-08-03T11:40:40.618Z,99641.66
2022-08-03T11:43:26.751Z,99641.75
2022-08-03T11:46:07.061Z,99641.34
2022-08-03T11:48:33.627Z,99639.09
2022-08-03T11:51:01.285Z,99637.84
2022-08-03T11:53:28.724Z,99638.41
2022-08-03T11:55:59.281Z,99635.06
2022-08-03T11:59:02.706Z,99631.84
2022-08-03T12:01:24.145Z,99626.94
2022-08-03T12:03:51.962Z,99618.50
2022-08-03T12:06:19.413Z,99616.56
2022-08-03T12:08:47.074Z,99606.22
2022-08-03T12:11:17.846Z,99617.84
2022-08-03T12:14:45.072Z,99614.06
2022-08-03T12:16:35.465Z,99607.94
2022-08-03T12:19:04.937Z,99625.06
2022-08-03T12:21:32.199Z,99615.03
2022-08-03T12:24:04.236Z,99593.69
2022-08-03T12:26:44.162Z,99603.50
2022-08-03T12:29:23.042Z,99602.09
2022-08-03T12:31:49.699Z,99602.44
2022-08-03T12:34:16.447Z,99598.28
2022-08-03T12:36:56.112Z,99599.09
2022-08-03T12:39:25.181Z,99597.41
2022-08-03T12:41:55.949Z,99597.50
2022-08-03T12:44:34.419Z,99583.66
2022-08-03T12:47:03.370Z,99593.34
2022-08-03T12:49:45.581Z,99597.44
2022-08-03T12:52:12.553Z,99569.34
2022-08-03T12:54:39.303Z,99581.81
2022-08-03T12:57:08.535Z,99581.06
2022-08-03T12:59:53.109Z,99572.81
2022-08-03T13:02:23.558Z,99584.00
2022-08-03T13:04:52.717Z,99580.78
2022-08-03T13:07:20.215Z,99579.06
2022-08-03T13:09:48.008Z,99587.88
2022-08-03T13:12:21.437Z,99585.63
2022-08-03T13:14:54.823Z,99576.19
2022-08-03T13:17:21.893Z,99578.00
2022-08-03T13:19:49.514Z,99572.72
2022-08-03T13:22:18.765Z,99567.31
2022-08-03T13:24:47.886Z,99579.22
2022-08-03T13:28:01.377Z,99581.34
2022-08-03T13:30:01.756Z,99564.69
2022-08-03T13:32:28.464Z,99566.03
2022-08-03T13:34:55.151Z,99558.25
2022-08-03T13:37:22.154Z,99555.81
2022-08-03T13:39:59.617Z,99567.03
2022-08-03T13:42:29.428Z,99564.84
2022-08-03T13:44:56.342Z,99563.63
2022-08-03T13:47:23.315Z,99490.34
2022-08-03T13:49:54.348Z,99559.88
2022-08-03T13:52:34.419Z,99554.91
2022-08-03T13:55:05.716Z,99555.59
2022-08-03T13:58:05.941Z,99507.22
2022-08-03T14:00:27.776Z,99550.75
2022-08-03T14:03:16.431Z,99548.88
2022-08-03T14:05:44.145Z,99543.09
2022-08-03T14:08:12.037Z,99519.66
2022-08-03T14:10:44.520Z,99534.59
2022-08-03T14:13:12.856Z,99533.19
2022-08-03T14:15:43.756Z,99539.69
2022-08-03T14:18:28.825Z,99526.06
2022-08-03T14:21:06.335Z,99527.72
2022-08-03T14:23:35.142Z,99527.56
2022-08-03T14:26:01.835Z,99518.84
2022-08-03T14:28:28.651Z,99498.50
2022-08-03T14:30:56.180Z,99528.28
2022-08-03T14:33:23.430Z,99519.44
2022-08-03T14:35:51.271Z,99518.44
2022-08-03T14:38:18.743Z,99511.16
2022-08-03T14:40:46.274Z,99519.06
2022-08-03T14:43:13.981Z,99487.44
2022-08-03T14:45:41.276Z,99521.28
2022-08-03T14:50:33.074Z,99521.25
2022-08-03T14:50:55.346Z,99529.16
2022-08-03T14:53:22.677Z,99520.69
2022-08-03T14:55:51.247Z,99521.53
2022-08-03T14:58:27.672Z,99524.16
2022-08-03T15:00:55.475Z,99517.47
2022-08-03T15:03:24.618Z,99512.03
2022-08-03T15:06:10.298Z,99495.03
2022-08-03T15:08:36.975Z,99512.97
2022-08-03T15:11:03.755Z,99505.75
2022-08-03T15:13:31.725Z,99480.78
2022-08-03T15:15:58.341Z,99508.69
2022-08-03T15:18:25.001Z,99500.00
2022-08-03T15:20:51.723Z,99487.88
2022-08-03T15:23:18.690Z,99471.19
2022-08-03T15:26:29.293Z,99492.44
2022-08-03T15:28:33.280Z,99490.78
2022-08-03T15:31:00.550Z,99486.19
2022-08-03T15:33:27.840Z,99483.25
2022-08-03T15:35:54.509Z,99489.50
2022-08-03T15:38:25.627Z,99475.72
2022-08-03T15:40:56.890Z,99451.88
2022-08-03T15:43:23.785Z,99461.25
2022-08-03T15:46:12.752Z,99469.97
2022-08-03T15:48:37.695Z,99473.28
2022-08-03T15:51:05.205Z,99458.00
2022-08-03T15:53:32.280Z,99473.53
2022-08-03T15:55:59.784Z,99467.63
2022-08-03T15:59:10.751Z,99471.63
2022-08-03T16:01:19.771Z,99462.72
2022-08-03T16:03:47.069Z,99453.91
2022-08-03T16:06:13.948Z,99453.66
2022-08-03T16:08:40.642Z,99454.09
2022-08-03T16:11:07.456Z,99436.47
2022-08-03T16:14:13.460Z,99454.91
2022-08-03T16:16:20.852Z,99447.56
2022-08-03T16:18:47.539Z,99443.75
2022-08-03T16:21:16.974Z,99430.34
2022-08-03T16:23:47.097Z,99449.31
2022-08-03T16:26:14.224Z,99442.09
2022-08-03T16:28:40.963Z,99433.34
2022-08-03T16:31:09.004Z,99431.97
2022-08-03T16:33:36.031Z,99432.81
2022-08-03T16:36:03.058Z,99422.72
2022-08-03T16:38:30.457Z,99430.59
2022-08-03T16:40:57.151Z,99410.81
2022-08-03T16:43:24.662Z,99419.91
2022-08-03T16:45:51.817Z,99431.16
2022-08-03T16:48:18.813Z,99435.41
2022-08-03T16:50:46.076Z,99429.63
2022-08-03T16:53:16.746Z,99410.31
2022-08-03T16:56:10.071Z,99421.28
2022-08-03T16:58:42.366Z,99432.00
2022-08-03T17:01:22.626Z,99424.91
2022-08-03T17:04:02.283Z,99432.09
2022-08-03T17:06:34.081Z,99433.94
2022-08-03T17:09:03.929Z,99437.47
2022-08-03T17:11:37.673Z,99423.50
2022-08-03T17:14:09.216Z,99426.59
2022-08-03T17:16:38.461Z,99427.00
2022-08-03T17:19:07.166Z,99411.59
2022-08-03T17:21:39.114Z,99421.00
2022-08-03T17:24:19.913Z,99420.28
2022-08-03T17:26:51.043Z,99427.66
2022-08-03T17:29:23.094Z,99426.47
2022-08-03T17:31:53.335Z,99421.81
2022-08-03T17:34:21.024Z,99424.34
2022-08-03T17:37:27.147Z,99427.09
2022-08-03T17:39:58.639Z,99410.88
2022-08-03T17:42:30.542Z,99428.34
2022-08-03T17:45:02.035Z,99416.63
2022-08-03T17:47:42.165Z,99442.75
2022-08-03T17:50:24.085Z,99442.66
2022-08-03T17:53:07.125Z,99438.72
2022-08-03T17:56:38.600Z,99395.19
2022-08-03T17:59:51.400Z,99447.13
2022-08-03T18:02:48.974Z,99455.44
2022-08-03T18:05:21.771Z,99452.72
2022-08-03T18:07:59.369Z,99455.97
2022-08-03T18:10:34.269Z,99459.22
2022-08-03T18:13:15.253Z,99472.09
2022-08-03T18:16:02.240Z,99464.13
2022-08-03T18:18:40.454Z,99466.91
2022-08-03T18:22:02.273Z,99468.03
2022-08-03T18:24:32.394Z,99469.53
2022-08-03T18:27:02.379Z,99455.53
2022-08-03T18:29:30.536Z,99461.25
2022-08-03T18:32:06.074Z,99439.47
2022-08-03T18:34:36.792Z,99444.59
2022-08-03T18:37:08.437Z,99473.09
2022-08-03T18:39:50.171Z,99468.38
2022-08-03T18:42:25.818Z,99473.00
2022-08-03T18:44:56.245Z,99473.13
2022-08-03T18:47:50.917Z,99474.06
2022-08-03T18:50:36.724Z,99472.81
2022-08-03T18:53:19.346Z,99470.09
2022-08-03T18:56:01.888Z,99477.75
2022-08-03T18:59:04.940Z,99473.28
2022-08-03T19:01:58.332Z,99476.50
2022-08-03T19:04:46.042Z,99423.38
2022-08-03T19:07:17.753Z,99477.44
2022-08-03T19:09:54.312Z,99460.69
2022-08-03T19:12:50.262Z,99485.91
2022-08-03T19:15:36.086Z,99457.53
2022-08-03T19:18:33.175Z,99463.84
2022-08-03T19:21:01.049Z,99488.13
2022-08-03T19:23:33.957Z,99488.03
2022-08-03T19:26:02.471Z,99491.16
2022-08-03T19:28:30.267Z,99499.66
2022-08-03T19:31:02.686Z,99504.44
2022-08-03T19:33:56.029Z,99496.38
2022-08-03T19:36:26.340Z,99506.06
2022-08-03T19:38:57.536Z,99508.28
2022-08-03T19:41:31.104Z,99490.84
2022-08-03T19:44:11.498Z,99506.41
2022-08-03T19:46:54.044Z,99506.28
2022-08-03T19:50:04.736Z,99477.50
2022-08-03T19:52:14.674Z,99507.25
2022-08-03T19:54:53.970Z,99511.41
2022-08-03T19:57:24.615Z,99520.00
2022-08-03T19:59:53.142Z,99501.34
2022-08-03T20:02:26.400Z,99512.75
2022-08-03T20:04:57.772Z,99480.72
2022-08-03T20:07:29.308Z,99513.28
2022-08-03T20:09:59.556Z,99509.06
2022-08-03T20:12:29.558Z,99509.47
2022-08-03T20:14:57.718Z,99505.72
2022-08-03T20:17:31.274Z,99497.94
2022-08-03T20:20:12.792Z,99509.03
2022-08-03T20:22:43.291Z,99521.03
2022-08-03T20:25:16.256Z,99501.19
2022-08-03T20:28:06.752Z,99517.94
2022-08-03T20:30:35.573Z,99518.50
2022-08-03T20:33:02.396Z,99497.13
2022-08-03T20:35:30.320Z,99517.78
2022-08-03T20:37:58.075Z,99517.63
2022-08-03T20:40:27.450Z,99469.56
2022-08-03T20:42:55.318Z,99516.75
2022-08-03T20:45:59.734Z,99486.69
2022-08-03T20:48:10.257Z,99523.19
2022-08-03T20:50:39.845Z,99517.91
2022-08-03T20:53:07.789Z,99524.75
2022-08-03T20:55:48.231Z,99529.94
2022-08-03T20:58:27.053Z,99531.44
2022-08-03T21:00:55.709Z,99535.84
2022-08-03T21:03:22.425Z,99511.66
2022-08-03T21:05:53.666Z,99526.91
2022-08-03T21:08:22.485Z,99529.44
2022-08-03T21:10:52.385Z,99521.19
2022-08-03T21:13:42.029Z,99520.09
2022-08-03T21:16:14.987Z,99527.78
2022-08-03T21:18:49.478Z,99530.06
2022-08-03T21:21:19.171Z,99535.53
2022-08-03T21:23:49.889Z,99467.41
2022-08-03T21:26:21.852Z,99495.94
2022-08-03T21:28:50.712Z,99509.69
2022-08-03T21:31:25.763Z,99511.09
2022-08-03T21:33:56.534Z,99507.66
2022-08-03T21:36:25.169Z,99517.41
2022-08-03T21:38:56.609Z,99497.50
2022-08-03T21:41:25.896Z,99493.50
2022-08-03T21:43:52.630Z,99491.16
2022-08-03T21:46:20.289Z,99469.19
2022-08-03T21:48:51.167Z,99509.75
2022-08-03T21:51:20.046Z,99493.16
2022-08-03T21:54:02.394Z,99492.28
2022-08-03T21:56:41.672Z,99516.47
2022-08-03T21:59:16.416Z,99518.59
2022-08-03T22:01:45.523Z,99513.19
2022-08-03T22:04:53.305Z,99524.59
2022-08-03T22:07:07.688Z,99528.72
2022-08-03T22:09:35.395Z,99493.09
2022-08-03T22:12:02.164Z,99505.88
2022-08-03T22:14:29.840Z,99507.00
2022-08-03T22:16:56.661Z,99529.19
2022-08-03T22:19:23.327Z,99526.56
2022-08-03T22:21:50.330Z,99541.81
2022-08-03T22:24:23.902Z,99535.94
2022-08-03T22:27:10.061Z,99546.78
2022-08-03T22:29:39.692Z,99545.38
2022-08-03T22:32:06.700Z,99528.75
2022-08-03T22:34:36.998Z,99538.78
2022-08-03T22:37:04.982Z,99519.59
2022-08-03T22:39:32.266Z,99534.22
2022-08-03T22:41:59.950Z,99536.97
2022-08-03T22:44:27.670Z,99531.81
2022-08-03T22:46:55.560Z,99532.09
2022-08-03T22:49:23.690Z,99518.56
2022-08-03T22:51:53.660Z,99518.06
2022-08-03T22:54:20.878Z,99524.56
2022-08-03T22:56:49.215Z,99490.81
2022-08-03T22:59:40.859Z,99531.28
2022-08-03T23:02:20.021Z,99534.22
2022-08-03T23:04:56.976Z,99540.13
2022-08-03T23:07:32.763Z,99546.31
2022-08-03T23:10:01.363Z,99537.09
2022-08-03T23:12:30.347Z,99538.22
2022-08-03T23:15:01.584Z,99539.84
2022-08-03T23:17:30.944Z,99530.16
2022-08-03T23:20:04.332Z,99527.41
2022-08-03T23:22:34.778Z,99525.50
2022-08-03T23:25:03.837Z,99516.03
2022-08-03T23:27:32.687Z,99514.47
2022-08-03T23:30:01.244Z,99541.47
2022-08-03T23:32:29.913Z,99532.59
2022-08-03T23:35:18.428Z,99541.78
2022-08-03T23:38:10.729Z,99539.41
2022-08-03T23:40:33.902Z,99493.22
2022-08-03T23:43:02.659Z,99544.28
2022-08-03T23:45:34.684Z,99542.69
2022-08-03T23:48:01.438Z,99550.00
2022-08-03T23:50:32.260Z,99544.31
2022-08-03T23:53:21.142Z,99541.59
2022-08-03T23:56:33.623Z,99541.06
2022-08-03T23:59:05.985Z,99540.28
